Flight Track Log - Related Links

Times and Time Zones

All times are in EDT time to prevent confusion due to time zone crossing. See the AWE997 flight status page for this flight to view local times or setup timezone preferences in your user account.

Time Position Orientation Groundspeed Altitude Reporting Facility
EDT Latitude Longitude Course Direction KTS MPH feet Rate Location/Type
Sun 11:19:23 AM 41.9833 -87.8500 85° East 152 175 2,500  Level Chicago TRACON
Sun 11:20:18 AM 41.9833 -87.8000 90° East 218 251 3,900 2,161 Climbing Chicago TRACON
Sun 11:21:00 AM 41.9503 -87.3700 97° East  Level FlightAware Approximate
Sun 11:22:00 AM 41.9377 -87.1937 95° East  Level FlightAware Approximate
Sun 11:22:29 AM 41.9950 -87.5531 86° East 306 352 9,200  Level Chicago Center
Sun 11:23:00 AM 41.9333 -87.0169 90° East  Level FlightAware Approximate
Sun 11:23:31 AM 41.9825 -87.4322 98° East 322 371 11,800  Level Chicago Center
Sun 11:24:00 AM 41.9351 -86.8400 85° East  Level FlightAware Approximate
Sun 11:24:32 AM 41.9689 -87.2981 98° East 358 412 12,900  Level Chicago Center
Sun 11:25:34 AM 41.9533 -87.1481 98° East 398 458 15,400 2,341 Climbing Chicago Center
Sun 11:26:35 AM 41.9450 -86.9953 94° East 408 470 17,700 2,098 Climbing Chicago Center
Sun 11:27:37 AM 41.9486 -86.8381 88° East 418 481 19,700 1,790 Climbing Chicago Center
Sun 11:28:39 AM 41.9506 -86.6658 89° East 433 498 21,400 1,610 Climbing Chicago Center
Sun 11:29:40 AM 41.9528 -86.4975 89° East 449 517 23,000 1,610 Climbing Chicago Center
Sun 11:30:42 AM 41.9539 -86.3247 89° East 459 528 24,700 1,463 Climbing Chicago Center
Sun 11:31:43 AM 41.9497 -86.1483 92° East 470 541 26,000 1,366 Climbing Chicago Center
Sun 11:32:45 AM 41.9328 -85.9719 97° East 475 547 27,500 1,366 Climbing Chicago Center
Sun 11:33:46 AM 41.9133 -85.7556 97° East 484 557 28,800 1,171 Climbing Chicago Center
Sun 11:34:48 AM 41.8961 -85.5711 97° East 491 565 29,900 1,073 Climbing Chicago Center
Sun 11:35:49 AM 41.8769 -85.3831 98° East 499 574 31,000 537 Climbing Chicago Center
Sun 11:36:51 AM 41.8592 -85.1958 97° East 500 575 31,000 -146 Level Chicago Center
Sun 11:37:52 AM 41.8403 -85.0158 98° East 489 563 30,700 -634 Descending Chicago Center
Sun 11:38:54 AM 41.8222 -84.8364 98° East 486 559 29,700 -823 Descending Chicago Center
Sun 11:39:56 AM 41.8044 -84.6619 98° East 478 550 29,000 -372 Descending Chicago Center
Sun 11:40:47 AM 41.7883 -84.5158 98° East 480 552 29,000  Level Cleveland Center
Sun 11:41:47 AM 41.7794 -84.3397 94° East 475 547 29,000  Level Cleveland Center
Sun 11:42:47 AM 41.7731 -84.1472 92° East 470 541 29,000  Level Cleveland Center
Sun 11:43:47 AM 41.7722 -83.9689 90° East 470 541 29,000  Level Cleveland Center
Sun 11:44:47 AM 41.7692 -83.7906 91° East 470 541 29,000  Level Cleveland Center
Sun 11:45:47 AM 41.7700 -83.6097 90° East 480 552 29,000  Level Cleveland Center
Sun 11:46:47 AM 41.7575 -83.4447 96° East 485 558 29,000  Level Cleveland Center
Sun 11:47:47 AM 41.7411 -83.2631 97° East 485 558 29,000  Level Cleveland Center
Sun 11:48:47 AM 41.7222 -83.0758 98° East 491 565 29,000  Level Cleveland Center
Sun 11:49:47 AM 41.7033 -82.8917 98° East 496 571 29,000  Level Cleveland Center
Sun 11:50:47 AM 41.6858 -82.7075 97° East 496 571 29,000  Level Cleveland Center
Sun 11:51:47 AM 41.6664 -82.5233 98° East 501 577 29,000  Level Cleveland Center
Sun 11:52:47 AM 41.6378 -82.3447 102° East 501 577 29,000  Level Cleveland Center
Sun 11:53:47 AM 41.5758 -82.1736 116° Southeast 501 577 29,000  Level Cleveland Center
Sun 11:54:47 AM 41.5133 -82.0056 116° Southeast 501 577 29,000  Level Cleveland Center
Sun 11:55:47 AM 41.4506 -81.8408 117° Southeast 501 577 29,000  Level Cleveland Center
Sun 11:56:47 AM 41.3839 -81.6542 115° Southeast 495 570 29,000  Level Cleveland Center
Sun 11:57:47 AM 41.3206 -81.4872 117° Southeast 500 575 29,000  Level Cleveland Center
Sun 11:58:47 AM 41.2550 -81.3206 118° Southeast 500 575 29,000  Level Cleveland Center
Sun 11:59:47 AM 41.1894 -81.1514 117° Southeast 500 575 29,000  Level Cleveland Center
Sun 12:00:47 PM 41.1297 -80.9856 116° Southeast 500 575 29,000  Level Cleveland Center
Sun 12:01:47 PM 41.0633 -80.8144 117° Southeast 500 575 29,000  Level Cleveland Center
Sun 12:02:47 PM 40.9989 -80.6492 117° Southeast 505 581 29,000  Level Cleveland Center
Sun 12:03:47 PM 40.9322 -80.4814 118° Southeast 505 581 29,000  Level Cleveland Center
Sun 12:04:47 PM 40.8631 -80.3167 119° Southeast 505 581 29,000  Level Cleveland Center
Sun 12:05:47 PM 40.8022 -80.1525 116° Southeast 505 581 29,000  Level Cleveland Center
Sun 12:06:47 PM 40.7536 -80.0131 115° Southeast 505 581 29,000  Level Cleveland Center
Sun 12:07:47 PM 40.6881 -79.8275 115° Southeast 511 588 29,000  Level Cleveland Center
Sun 12:08:47 PM 40.6450 -79.6472 107° East 511 588 29,000  Level Cleveland Center
Sun 12:09:47 PM 40.6119 -79.4672 104° East 505 581 29,000  Level Cleveland Center
Sun 12:10:47 PM 40.5703 -79.2628 105° East 510 587 29,000  Level Cleveland Center
Sun 12:11:47 PM 40.5325 -79.0697 104° East 529 609 29,000  Level Cleveland Center
Sun 12:12:47 PM 40.4944 -78.8822 105° East 529 609 29,000  Level Cleveland Center
Sun 12:13:47 PM 40.4558 -78.6922 105° East 529 609 29,000  Level Cleveland Center
Sun 12:14:47 PM 40.4192 -78.5050 104° East 529 609 29,000 -220 Level Cleveland Center
Sun 12:15:36 PM 40.3911 -78.3531 104° East 530 610 28,600 -729 Descending New York Center
Sun 12:16:34 PM 40.3511 -78.1633 105° East 530 610 27,700 -1,613 Descending New York Center
Sun 12:17:35 PM 40.3150 -77.9689 104° East 535 616 25,400 -1,388 Descending New York Center
Sun 12:18:35 PM 40.3103 -77.7694 92° East 541 623 24,900 -793 Descending New York Center
Sun 12:19:36 PM 40.2939 -77.5908 97° East 550 633 23,800 -992 Descending New York Center
Sun 12:20:36 PM 40.2708 -77.4089 99° East 532 612 22,900 -1,462 Descending New York Center
Sun 12:21:35 PM 40.2453 -77.2297 101° East 492 566 20,900 -1,462 Descending New York Center
Sun 12:22:35 PM 40.2247 -77.0700 100° East 460 529 20,000 -807 Descending New York Center
Sun 12:23:34 PM 40.2042 -76.9078 99° East 448 516 19,300 -1,100 Descending New York Center
Sun 12:24:35 PM 40.1828 -76.7511 100° East 438 504 17,800 -1,525 Descending New York Center
Sun 12:25:36 PM 40.1614 -76.5969 100° East 433 498 16,200 -1,488 Descending New York Center
Sun 12:26:36 PM 40.1428 -76.4650 100° East 416 479 14,800 -1,604 Descending New York Center
Sun 12:27:17 PM 40.1269 -76.3406 99° East 405 466 13,500 -1,770 Descending FAA TRACON SMA TRACON (SMA)
Sun 12:27:37 PM 40.1203 -76.2936 101° East 401 461 13,000 -1,350 Descending FAA TRACON SMA TRACON (SMA)
Sun 12:27:57 PM 40.1158 -76.2506 98° East 393 452 12,600 -1,350 Descending FAA TRACON SMA TRACON (SMA)
Sun 12:28:17 PM 40.1133 -76.2064 94° East 397 457 12,100 -1,800 Descending FAA TRACON SMA TRACON (SMA)
Sun 12:28:37 PM 40.1103 -76.1508 94° East 404 465 11,400 -1,800 Descending FAA TRACON SMA TRACON (SMA)
Sun 12:28:57 PM 40.1083 -76.1028 93° East 409 471 10,900 -1,050 Descending FAA TRACON SMA TRACON (SMA)
Sun 12:29:17 PM 40.1036 -76.0583 98° East 410 472 10,700 -750 Descending FAA TRACON SMA TRACON (SMA)
Sun 12:29:37 PM 40.0997 -76.0033 95° East 393 452 10,400 -750 Descending FAA TRACON SMA TRACON (SMA)
Sun 12:29:57 PM 40.0972 -75.9628 95° East 377 434 10,200 -1,000 Descending FAA TRACON SMA TRACON (SMA)
Sun 12:30:37 PM 40.0908 -75.8750 95° East 351 404 9,400 -1,200 Descending FAA TRACON SMA TRACON (SMA)
Sun 12:30:57 PM 40.0881 -75.8383 96° East 346 398 9,000 -1,350 Descending FAA TRACON SMA TRACON (SMA)
Sun 12:31:17 PM 40.0856 -75.7983 95° East 345 397 8,500 -1,200 Descending FAA TRACON SMA TRACON (SMA)
Sun 12:31:37 PM 40.0828 -75.7606 95° East 343 395 8,200 -1,024 Descending FAA TRACON SMA TRACON (SMA)
Sun 12:31:58 PM 40.0794 -75.7142 95° East 338 389 7,800 -900 Descending FAA TRACON SMA TRACON (SMA)
Sun 12:32:17 PM 40.0781 -75.6772 93° East 335 386 7,600 -769 Descending FAA TRACON SMA TRACON (SMA)
Sun 12:32:37 PM 40.0767 -75.6306 92° East 336 387 7,300 -900 Descending FAA TRACON SMA TRACON (SMA)
Sun 12:32:57 PM 40.0744 -75.5925 94° East 334 384 7,000 -750 Descending FAA TRACON SMA TRACON (SMA)
Sun 12:33:17 PM 40.0725 -75.5564 94° East 329 379 6,800 -732 Descending FAA TRACON SMA TRACON (SMA)
Sun 12:33:38 PM 40.0711 -75.5211 93° East 320 368 6,500 -600 Descending FAA TRACON SMA TRACON (SMA)
Sun 12:33:57 PM 40.0689 -75.4794 94° East 301 346 6,400 -154 Descending FAA TRACON SMA TRACON (SMA)
Sun 12:34:17 PM 40.0678 -75.4456 92° East 302 348 6,400 -300 Level FAA TRACON SMA TRACON (SMA)
Sun 12:34:37 PM 40.0661 -75.4142 94° East 292 336 6,200 -600 Descending FAA TRACON SMA TRACON (SMA)
Sun 12:34:57 PM 40.0636 -75.3731 95° East 285 328 6,000 -293 Descending FAA TRACON SMA TRACON (SMA)
Sun 12:35:18 PM 40.0622 -75.3411 93° East 288 331 6,000  Level FAA TRACON SMA TRACON (SMA)
Sun 12:35:38 PM 40.0606 -75.3083 94° East 294 338 6,000  Level FAA TRACON SMA TRACON (SMA)
Sun 12:35:58 PM 40.0583 -75.2675 94° East 298 343 6,000  Level FAA TRACON SMA TRACON (SMA)
Sun 12:36:18 PM 40.0519 -75.2353 105° East 284 327 6,000  Level FAA TRACON SMA TRACON (SMA)
Sun 12:36:38 PM 40.0444 -75.2058 108° East 279 321 6,000  Level FAA TRACON SMA TRACON (SMA)
Sun 12:36:58 PM 40.0333 -75.1664 110° East 291 335 6,000  Level FAA TRACON SMA TRACON (SMA)
Sun 12:37:18 PM 40.0256 -75.1372 109° East 276 318 6,000  Level FAA TRACON SMA TRACON (SMA)
Sun 12:37:38 PM 40.0181 -75.1097 110° East 256 295 6,000 -300 Level FAA TRACON SMA TRACON (SMA)
Sun 12:37:58 PM 40.0094 -75.0764 109° East 247 284 5,800 -750 Descending FAA TRACON SMA TRACON (SMA)
Sun 12:38:18 PM 40.0022 -75.0508 110° East 244 281 5,500 -1,350 Descending FAA TRACON SMA TRACON (SMA)
Sun 12:38:38 PM 39.9964 -75.0269 108° East 234 269 4,900 -1,950 Descending FAA TRACON SMA TRACON (SMA)
Sun 12:38:58 PM 39.9878 -74.9947 109° East 236 272 4,200 -1,350 Descending FAA TRACON SMA TRACON (SMA)
Sun 12:39:18 PM 39.9806 -74.9697 111° Southeast 236 272 4,000 -300 Descending FAA TRACON SMA TRACON (SMA)
Sun 12:39:38 PM 39.9647 -74.9564 147° Southeast 209 241 4,000 -150 Level FAA TRACON SMA TRACON (SMA)
Sun 12:39:58 PM 39.9494 -74.9572 182° South 193 222 3,900 -600 Descending FAA TRACON SMA TRACON (SMA)
Sun 12:40:18 PM 39.9339 -74.9744 220° Southwest 191 220 3,600 -1,200 Descending FAA TRACON SMA TRACON (SMA)
Sun 12:40:38 PM 39.9244 -74.9925 236° Southwest 193 222 3,100 -900 Descending FAA TRACON SMA TRACON (SMA)
Sun 12:40:58 PM 39.9183 -75.0122 248° West 194 223 3,000 -150 Descending FAA TRACON SMA TRACON (SMA)
Sun 12:41:18 PM 39.9128 -75.0356 253° West 179 206 3,000 -300 Level FAA TRACON SMA TRACON (SMA)
Sun 12:41:38 PM 39.9086 -75.0542 254° West 175 201 2,800 -750 Descending FAA TRACON SMA TRACON (SMA)
Sun 12:41:58 PM 39.9053 -75.0717 256° West 162 186 2,500 -900 Descending FAA TRACON SMA TRACON (SMA)

Login

Don't have an account? Register now (free) for customized features, flight alerts, and more!